sensor_id;sensor_type;location;lat;lon;timestamp;temperature;humidity
68764;DHT22;55754;52.038;5.566;2022-12-29T00:02:15;11.00;99.90
68764;DHT22;55754;52.038;5.566;2022-12-29T00:04:40;11.10;99.90
68764;DHT22;55754;52.038;5.566;2022-12-29T00:07:07;11.00;99.90
68764;DHT22;55754;52.038;5.566;2022-12-29T00:09:33;11.10;99.90
68764;DHT22;55754;52.038;5.566;2022-12-29T00:12:00;11.10;99.90
68764;DHT22;55754;52.038;5.566;2022-12-29T00:14:26;11.10;99.90
68764;DHT22;55754;52.038;5.566;2022-12-29T00:17:11;11.10;99.90
68764;DHT22;55754;52.038;5.566;2022-12-29T00:19:36;11.10;99.90
68764;DHT22;55754;52.038;5.566;2022-12-29T00:22:20;11.20;99.90
68764;DHT22;55754;52.038;5.566;2022-12-29T00:25:05;11.20;99.90
68764;DHT22;55754;52.038;5.566;2022-12-29T00:27:34;11.20;99.90
68764;DHT22;55754;52.038;5.566;2022-12-29T00:30:20;11.20;99.90
68764;DHT22;55754;52.038;5.566;2022-12-29T00:33:32;11.20;99.90
68764;DHT22;55754;52.038;5.566;2022-12-29T00:36:38;11.20;99.90
68764;DHT22;55754;52.038;5.566;2022-12-29T00:39:10;11.20;99.90
68764;DHT22;55754;52.038;5.566;2022-12-29T00:41:55;11.20;99.90
68764;DHT22;55754;52.038;5.566;2022-12-29T00:44:39;11.20;99.90
68764;DHT22;55754;52.038;5.566;2022-12-29T00:47:05;11.20;99.90
68764;DHT22;55754;52.038;5.566;2022-12-29T00:49:30;11.30;99.90
68764;DHT22;55754;52.038;5.566;2022-12-29T00:52:03;11.20;99.90
68764;DHT22;55754;52.038;5.566;2022-12-29T00:54:31;11.30;99.90
68764;DHT22;55754;52.038;5.566;2022-12-29T00:56:57;11.30;99.90
68764;DHT22;55754;52.038;5.566;2022-12-29T00:59:26;11.30;99.90
68764;DHT22;55754;52.038;5.566;2022-12-29T01:01:53;11.30;99.90
68764;DHT22;55754;52.038;5.566;2022-12-29T01:04:19;11.30;99.90
68764;DHT22;55754;52.038;5.566;2022-12-29T01:06:45;11.30;99.90
68764;DHT22;55754;52.038;5.566;2022-12-29T01:09:11;11.30;99.90
68764;DHT22;55754;52.038;5.566;2022-12-29T01:11:56;11.20;99.90
68764;DHT22;55754;52.038;5.566;2022-12-29T01:14:22;11.30;99.90
68764;DHT22;55754;52.038;5.566;2022-12-29T01:16:48;11.20;99.90
68764;DHT22;55754;52.038;5.566;2022-12-29T01:19:15;11.30;99.90
68764;DHT22;55754;52.038;5.566;2022-12-29T01:21:40;11.30;99.90
68764;DHT22;55754;52.038;5.566;2022-12-29T01:24:06;11.30;99.90
68764;DHT22;55754;52.038;5.566;2022-12-29T01:26:32;11.20;99.90
68764;DHT22;55754;52.038;5.566;2022-12-29T01:28:57;11.20;99.90
68764;DHT22;55754;52.038;5.566;2022-12-29T01:31:23;11.30;99.90
68764;DHT22;55754;52.038;5.566;2022-12-29T01:33:48;11.20;99.90
68764;DHT22;55754;52.038;5.566;2022-12-29T01:36:18;11.20;99.90
68764;DHT22;55754;52.038;5.566;2022-12-29T01:38:44;11.20;99.90
68764;DHT22;55754;52.038;5.566;2022-12-29T01:41:11;11.20;99.90
68764;DHT22;55754;52.038;5.566;2022-12-29T01:43:52;11.20;99.90
68764;DHT22;55754;52.038;5.566;2022-12-29T01:49:22;11.20;99.90
68764;DHT22;55754;52.038;5.566;2022-12-29T01:51:58;11.20;99.90
68764;DHT22;55754;52.038;5.566;2022-12-29T01:54:48;11.20;99.90
68764;DHT22;55754;52.038;5.566;2022-12-29T01:57:23;11.10;99.90
68764;DHT22;55754;52.038;5.566;2022-12-29T02:00:00;11.10;99.90
68764;DHT22;55754;52.038;5.566;2022-12-29T02:02:27;11.10;99.90
68764;DHT22;55754;52.038;5.566;2022-12-29T02:04:55;11.10;99.90
68764;DHT22;55754;52.038;5.566;2022-12-29T02:07:25;11.10;99.90
68764;DHT22;55754;52.038;5.566;2022-12-29T02:09:53;11.00;99.90
68764;DHT22;55754;52.038;5.566;2022-12-29T02:12:21;11.00;99.90
68764;DHT22;55754;52.038;5.566;2022-12-29T02:14:53;11.00;99.90
68764;DHT22;55754;52.038;5.566;2022-12-29T02:31:06;11.00;99.90
68764;DHT22;55754;52.038;5.566;2022-12-29T02:34:29;11.00;99.90
68764;DHT22;55754;52.038;5.566;2022-12-29T02:47:57;11.00;99.90
68764;DHT22;55754;52.038;5.566;2022-12-29T02:50:37;11.00;99.90
68764;DHT22;55754;52.038;5.566;2022-12-29T02:53:11;11.00;99.90
68764;DHT22;55754;52.038;5.566;2022-12-29T02:55:37;11.00;99.90
68764;DHT22;55754;52.038;5.566;2022-12-29T02:58:22;11.00;99.90
68764;DHT22;55754;52.038;5.566;2022-12-29T03:01:04;11.00;99.90
68764;DHT22;55754;52.038;5.566;2022-12-29T03:06:47;11.00;99.90
68764;DHT22;55754;52.038;5.566;2022-12-29T03:15:27;11.00;99.90
68764;DHT22;55754;52.038;5.566;2022-12-29T03:18:17;11.00;99.90
68764;DHT22;55754;52.038;5.566;2022-12-29T03:20:53;11.00;99.90
68764;DHT22;55754;52.038;5.566;2022-12-29T03:23:20;11.00;99.90
68764;DHT22;55754;52.038;5.566;2022-12-29T03:25:49;10.90;99.90
68764;DHT22;55754;52.038;5.566;2022-12-29T03:28:44;10.90;99.90
68764;DHT22;55754;52.038;5.566;2022-12-29T03:31:09;10.90;99.90
68764;DHT22;55754;52.038;5.566;2022-12-29T03:33:37;10.90;99.90
68764;DHT22;55754;52.038;5.566;2022-12-29T03:36:08;10.90;99.90
68764;DHT22;55754;52.038;5.566;2022-12-29T03:38:40;10.90;99.90
68764;DHT22;55754;52.038;5.566;2022-12-29T03:41:11;10.80;99.90
68764;DHT22;55754;52.038;5.566;2022-12-29T03:43:37;10.90;99.90
68764;DHT22;55754;52.038;5.566;2022-12-29T03:46:02;10.80;99.90
68764;DHT22;55754;52.038;5.566;2022-12-29T03:48:34;10.80;99.90
68764;DHT22;55754;52.038;5.566;2022-12-29T03:51:00;10.80;99.90
68764;DHT22;55754;52.038;5.566;2022-12-29T03:53:25;10.80;99.90
68764;DHT22;55754;52.038;5.566;2022-12-29T03:55:51;10.70;99.90
68764;DHT22;55754;52.038;5.566;2022-12-29T03:58:16;10.70;99.90
68764;DHT22;55754;52.038;5.566;2022-12-29T04:00:45;10.70;99.90
68764;DHT22;55754;52.038;5.566;2022-12-29T04:03:10;10.70;99.90
68764;DHT22;55754;52.038;5.566;2022-12-29T04:05:36;10.70;99.90
68764;DHT22;55754;52.038;5.566;2022-12-29T04:08:01;10.70;99.90
68764;DHT22;55754;52.038;5.566;2022-12-29T04:10:27;10.70;99.90
68764;DHT22;55754;52.038;5.566;2022-12-29T04:12:52;10.70;99.90
68764;DHT22;55754;52.038;5.566;2022-12-29T04:15:18;10.70;99.90
68764;DHT22;55754;52.038;5.566;2022-12-29T04:17:46;10.70;99.90
68764;DHT22;55754;52.038;5.566;2022-12-29T04:20:12;10.70;99.90
68764;DHT22;55754;52.038;5.566;2022-12-29T04:23:03;10.70;99.90
68764;DHT22;55754;52.038;5.566;2022-12-29T04:25:31;10.80;99.90
68764;DHT22;55754;52.038;5.566;2022-12-29T04:27:57;10.80;99.90
68764;DHT22;55754;52.038;5.566;2022-12-29T04:30:22;10.80;99.90
68764;DHT22;55754;52.038;5.566;2022-12-29T04:32:48;10.80;99.90
68764;DHT22;55754;52.038;5.566;2022-12-29T04:35:14;10.80;99.80
68764;DHT22;55754;52.038;5.566;2022-12-29T04:37:39;10.80;99.70
68764;DHT22;55754;52.038;5.566;2022-12-29T04:40:08;10.80;99.60
68764;DHT22;55754;52.038;5.566;2022-12-29T04:42:34;10.80;98.80
68764;DHT22;55754;52.038;5.566;2022-12-29T04:44:59;10.80;98.60
68764;DHT22;55754;52.038;5.566;2022-12-29T04:47:25;10.90;98.90
68764;DHT22;55754;52.038;5.566;2022-12-29T04:49:50;10.80;98.10
68764;DHT22;55754;52.038;5.566;2022-12-29T04:52:18;10.80;98.00
68764;DHT22;55754;52.038;5.566;2022-12-29T04:54:44;10.90;98.30
68764;DHT22;55754;52.038;5.566;2022-12-29T04:57:09;10.80;98.10
68764;DHT22;55754;52.038;5.566;2022-12-29T04:59:35;10.80;97.70
68764;DHT22;55754;52.038;5.566;2022-12-29T05:02:01;10.80;97.90
68764;DHT22;55754;52.038;5.566;2022-12-29T05:04:26;10.80;97.60
68764;DHT22;55754;52.038;5.566;2022-12-29T05:06:52;10.80;97.40
68764;DHT22;55754;52.038;5.566;2022-12-29T05:09:17;10.80;97.40
68764;DHT22;55754;52.038;5.566;2022-12-29T05:11:43;10.80;96.30
68764;DHT22;55754;52.038;5.566;2022-12-29T05:14:08;10.80;97.00
68764;DHT22;55754;52.038;5.566;2022-12-29T05:16:34;10.80;97.00
68764;DHT22;55754;52.038;5.566;2022-12-29T05:18:59;10.80;97.00
68764;DHT22;55754;52.038;5.566;2022-12-29T05:21:25;10.80;96.40
68764;DHT22;55754;52.038;5.566;2022-12-29T05:23:50;10.70;96.40
68764;DHT22;55754;52.038;5.566;2022-12-29T05:26:16;10.70;96.80
68764;DHT22;55754;52.038;5.566;2022-12-29T05:28:41;10.70;96.80
68764;DHT22;55754;52.038;5.566;2022-12-29T05:31:07;10.60;96.20
68764;DHT22;55754;52.038;5.566;2022-12-29T05:33:32;10.60;96.30
68764;DHT22;55754;52.038;5.566;2022-12-29T05:36:07;10.60;96.40
68764;DHT22;55754;52.038;5.566;2022-12-29T05:38:33;10.60;95.70
68764;DHT22;55754;52.038;5.566;2022-12-29T05:40:59;10.60;96.30
68764;DHT22;55754;52.038;5.566;2022-12-29T05:43:24;10.60;96.20
68764;DHT22;55754;52.038;5.566;2022-12-29T05:45:50;10.60;96.20
68764;DHT22;55754;52.038;5.566;2022-12-29T05:48:16;10.70;96.30
68764;DHT22;55754;52.038;5.566;2022-12-29T05:50:41;10.70;96.30
68764;DHT22;55754;52.038;5.566;2022-12-29T05:53:07;10.60;95.70
68764;DHT22;55754;52.038;5.566;2022-12-29T05:55:34;10.60;95.90
68764;DHT22;55754;52.038;5.566;2022-12-29T05:58:05;10.60;95.60
68764;DHT22;55754;52.038;5.566;2022-12-29T06:00:31;10.60;95.70
68764;DHT22;55754;52.038;5.566;2022-12-29T06:02:56;10.60;95.50
68764;DHT22;55754;52.038;5.566;2022-12-29T06:05:25;10.60;95.20
68764;DHT22;55754;52.038;5.566;2022-12-29T06:07:50;10.60;94.50
68764;DHT22;55754;52.038;5.566;2022-12-29T06:10:16;10.60;94.70
68764;DHT22;55754;52.038;5.566;2022-12-29T06:12:42;10.70;94.40
68764;DHT22;55754;52.038;5.566;2022-12-29T06:15:08;10.70;94.60
68764;DHT22;55754;52.038;5.566;2022-12-29T06:17:34;10.60;94.00
68764;DHT22;55754;52.038;5.566;2022-12-29T06:19:59;10.70;94.60
68764;DHT22;55754;52.038;5.566;2022-12-29T06:22:25;10.70;94.90
68764;DHT22;55754;52.038;5.566;2022-12-29T06:24:50;10.70;94.80
68764;DHT22;55754;52.038;5.566;2022-12-29T06:27:16;10.70;94.80
68764;DHT22;55754;52.038;5.566;2022-12-29T06:29:41;10.70;94.70
68764;DHT22;55754;52.038;5.566;2022-12-29T06:32:08;10.70;94.90
68764;DHT22;55754;52.038;5.566;2022-12-29T06:34:34;10.70;94.90
68764;DHT22;55754;52.038;5.566;2022-12-29T06:37:00;10.70;94.80
68764;DHT22;55754;52.038;5.566;2022-12-29T06:39:26;10.70;94.90
68764;DHT22;55754;52.038;5.566;2022-12-29T06:41:52;10.70;94.90
68764;DHT22;55754;52.038;5.566;2022-12-29T06:44:22;10.70;95.10
68764;DHT22;55754;52.038;5.566;2022-12-29T06:46:48;10.70;95.10
68764;DHT22;55754;52.038;5.566;2022-12-29T06:49:13;10.60;95.20
68764;DHT22;55754;52.038;5.566;2022-12-29T06:51:39;10.60;95.20
68764;DHT22;55754;52.038;5.566;2022-12-29T06:54:05;10.60;94.90
68764;DHT22;55754;52.038;5.566;2022-12-29T06:56:31;10.80;94.70
68764;DHT22;55754;52.038;5.566;2022-12-29T06:58:56;10.60;94.80
68764;DHT22;55754;52.038;5.566;2022-12-29T07:01:22;10.50;94.00
68764;DHT22;55754;52.038;5.566;2022-12-29T07:03:48;10.50;93.40
68764;DHT22;55754;52.038;5.566;2022-12-29T07:06:13;10.50;94.10
68764;DHT22;55754;52.038;5.566;2022-12-29T07:08:48;10.40;94.00
68764;DHT22;55754;52.038;5.566;2022-12-29T07:11:14;10.30;94.50
68764;DHT22;55754;52.038;5.566;2022-12-29T07:13:39;10.20;95.00
68764;DHT22;55754;52.038;5.566;2022-12-29T07:16:07;10.20;95.40
68764;DHT22;55754;52.038;5.566;2022-12-29T07:18:33;10.10;95.70
68764;DHT22;55754;52.038;5.566;2022-12-29T07:20:58;10.10;95.90
68764;DHT22;55754;52.038;5.566;2022-12-29T07:23:24;10.10;96.20
68764;DHT22;55754;52.038;5.566;2022-12-29T07:25:50;10.00;96.60
68764;DHT22;55754;52.038;5.566;2022-12-29T07:28:15;10.00;96.90
68764;DHT22;55754;52.038;5.566;2022-12-29T07:30:41;10.00;97.30
68764;DHT22;55754;52.038;5.566;2022-12-29T07:33:06;9.90;97.60
68764;DHT22;55754;52.038;5.566;2022-12-29T07:35:34;9.90;98.50
68764;DHT22;55754;52.038;5.566;2022-12-29T07:38:00;9.90;98.30
68764;DHT22;55754;52.038;5.566;2022-12-29T07:40:28;9.80;98.40
68764;DHT22;55754;52.038;5.566;2022-12-29T07:42:54;9.90;98.70
68764;DHT22;55754;52.038;5.566;2022-12-29T07:45:19;9.80;98.50
68764;DHT22;55754;52.038;5.566;2022-12-29T07:47:48;9.80;98.60
68764;DHT22;55754;52.038;5.566;2022-12-29T07:50:14;9.70;98.60
68764;DHT22;55754;52.038;5.566;2022-12-29T07:52:40;9.80;98.50
68764;DHT22;55754;52.038;5.566;2022-12-29T07:55:06;9.70;98.50
68764;DHT22;55754;52.038;5.566;2022-12-29T07:57:31;9.70;98.70
68764;DHT22;55754;52.038;5.566;2022-12-29T07:59:57;9.60;98.80
68764;DHT22;55754;52.038;5.566;2022-12-29T08:02:22;9.70;98.90
68764;DHT22;55754;52.038;5.566;2022-12-29T08:04:48;9.70;98.80
68764;DHT22;55754;52.038;5.566;2022-12-29T08:07:13;9.70;98.60
68764;DHT22;55754;52.038;5.566;2022-12-29T08:09:39;9.80;98.50
68764;DHT22;55754;52.038;5.566;2022-12-29T08:12:05;9.80;98.40
68764;DHT22;55754;52.038;5.566;2022-12-29T08:14:30;9.90;98.10
68764;DHT22;55754;52.038;5.566;2022-12-29T08:16:56;9.90;98.00
68764;DHT22;55754;52.038;5.566;2022-12-29T08:19:21;9.90;98.00
68764;DHT22;55754;52.038;5.566;2022-12-29T08:21:47;10.00;97.50
68764;DHT22;55754;52.038;5.566;2022-12-29T08:24:12;10.00;97.20
68764;DHT22;55754;52.038;5.566;2022-12-29T08:26:38;10.00;97.10
68764;DHT22;55754;52.038;5.566;2022-12-29T08:29:04;10.00;96.80
68764;DHT22;55754;52.038;5.566;2022-12-29T08:31:29;10.10;96.50
68764;DHT22;55754;52.038;5.566;2022-12-29T08:33:55;10.10;96.50
68764;DHT22;55754;52.038;5.566;2022-12-29T08:36:20;10.10;96.30
68764;DHT22;55754;52.038;5.566;2022-12-29T08:38:46;10.20;95.80
68764;DHT22;55754;52.038;5.566;2022-12-29T08:41:11;10.20;95.40
68764;DHT22;55754;52.038;5.566;2022-12-29T08:43:37;10.20;95.30
68764;DHT22;55754;52.038;5.566;2022-12-29T08:46:09;10.30;95.60
68764;DHT22;55754;52.038;5.566;2022-12-29T08:48:34;10.30;95.00
68764;DHT22;55754;52.038;5.566;2022-12-29T08:51:00;10.30;95.00
68764;DHT22;55754;52.038;5.566;2022-12-29T08:53:25;10.30;94.90
68764;DHT22;55754;52.038;5.566;2022-12-29T08:55:58;10.30;94.70
68764;DHT22;55754;52.038;5.566;2022-12-29T08:58:25;10.30;94.40
68764;DHT22;55754;52.038;5.566;2022-12-29T09:00:55;10.30;94.70
68764;DHT22;55754;52.038;5.566;2022-12-29T09:03:21;10.20;94.90
68764;DHT22;55754;52.038;5.566;2022-12-29T09:05:48;10.20;95.20
68764;DHT22;55754;52.038;5.566;2022-12-29T09:08:14;10.20;95.30
68764;DHT22;55754;52.038;5.566;2022-12-29T09:10:40;10.30;95.40
68764;DHT22;55754;52.038;5.566;2022-12-29T09:13:05;10.30;95.40
68764;DHT22;55754;52.038;5.566;2022-12-29T09:15:31;10.20;95.00
68764;DHT22;55754;52.038;5.566;2022-12-29T09:17:56;10.30;95.40
68764;DHT22;55754;52.038;5.566;2022-12-29T09:20:22;10.20;95.40
68764;DHT22;55754;52.038;5.566;2022-12-29T09:22:48;10.20;95.50
68764;DHT22;55754;52.038;5.566;2022-12-29T09:25:14;10.30;95.70
68764;DHT22;55754;52.038;5.566;2022-12-29T09:27:40;10.30;95.70
68764;DHT22;55754;52.038;5.566;2022-12-29T09:30:08;10.30;95.50
68764;DHT22;55754;52.038;5.566;2022-12-29T09:32:35;10.30;95.40
68764;DHT22;55754;52.038;5.566;2022-12-29T09:35:01;10.30;95.10
68764;DHT22;55754;52.038;5.566;2022-12-29T09:37:27;10.30;95.50
68764;DHT22;55754;52.038;5.566;2022-12-29T09:39:52;10.30;95.60
68764;DHT22;55754;52.038;5.566;2022-12-29T09:42:58;10.30;95.80
68764;DHT22;55754;52.038;5.566;2022-12-29T09:45:45;10.30;96.30
68764;DHT22;55754;52.038;5.566;2022-12-29T09:48:25;10.20;96.60
68764;DHT22;55754;52.038;5.566;2022-12-29T09:51:00;10.20;96.90
68764;DHT22;55754;52.038;5.566;2022-12-29T09:53:43;10.20;97.30
68764;DHT22;55754;52.038;5.566;2022-12-29T09:56:15;10.10;97.30
68764;DHT22;55754;52.038;5.566;2022-12-29T09:58:48;10.10;97.50
68764;DHT22;55754;52.038;5.566;2022-12-29T10:04:04;10.10;98.40
68764;DHT22;55754;52.038;5.566;2022-12-29T10:09:19;10.00;99.10
68764;DHT22;55754;52.038;5.566;2022-12-29T10:11:52;10.00;99.10
68764;DHT22;55754;52.038;5.566;2022-12-29T10:17:06;9.90;99.70
68764;DHT22;55754;52.038;5.566;2022-12-29T10:20:02;9.80;99.90
68764;DHT22;55754;52.038;5.566;2022-12-29T10:25:18;9.80;99.90
68764;DHT22;55754;52.038;5.566;2022-12-29T10:27:47;9.80;99.90
68764;DHT22;55754;52.038;5.566;2022-12-29T10:30:14;9.80;99.90
68764;DHT22;55754;52.038;5.566;2022-12-29T10:32:45;9.80;99.90
68764;DHT22;55754;52.038;5.566;2022-12-29T10:35:22;9.90;99.90
68764;DHT22;55754;52.038;5.566;2022-12-29T10:43:28;9.80;99.90
68764;DHT22;55754;52.038;5.566;2022-12-29T10:45:57;9.80;99.90
68764;DHT22;55754;52.038;5.566;2022-12-29T10:48:30;9.80;99.90
68764;DHT22;55754;52.038;5.566;2022-12-29T10:50:58;9.80;99.90
68764;DHT22;55754;52.038;5.566;2022-12-29T10:53:28;9.80;99.90
68764;DHT22;55754;52.038;5.566;2022-12-29T10:55:55;9.90;99.90
68764;DHT22;55754;52.038;5.566;2022-12-29T10:58:23;9.90;99.90
68764;DHT22;55754;52.038;5.566;2022-12-29T11:00:52;9.80;99.90
68764;DHT22;55754;52.038;5.566;2022-12-29T11:05:57;9.90;99.90
68764;DHT22;55754;52.038;5.566;2022-12-29T11:08:30;10.00;99.90
68764;DHT22;55754;52.038;5.566;2022-12-29T11:11:04;10.00;99.90
68764;DHT22;55754;52.038;5.566;2022-12-29T11:13:32;10.00;99.90
68764;DHT22;55754;52.038;5.566;2022-12-29T11:15:58;10.00;99.90
68764;DHT22;55754;52.038;5.566;2022-12-29T11:18:36;10.20;99.90
68764;DHT22;55754;52.038;5.566;2022-12-29T11:21:05;10.10;99.90
68764;DHT22;55754;52.038;5.566;2022-12-29T11:26:22;10.10;99.90
68764;DHT22;55754;52.038;5.566;2022-12-29T11:32:00;10.10;99.90
68764;DHT22;55754;52.038;5.566;2022-12-29T11:34:35;10.10;99.90
68764;DHT22;55754;52.038;5.566;2022-12-29T11:40:02;10.00;99.90
68764;DHT22;55754;52.038;5.566;2022-12-29T11:42:40;10.00;99.90
68764;DHT22;55754;52.038;5.566;2022-12-29T11:45:16;10.00;99.90
68764;DHT22;55754;52.038;5.566;2022-12-29T11:47:44;10.00;99.90
68764;DHT22;55754;52.038;5.566;2022-12-29T11:50:17;10.00;99.90
68764;DHT22;55754;52.038;5.566;2022-12-29T11:52:43;9.90;99.90
68764;DHT22;55754;52.038;5.566;2022-12-29T11:55:18;9.90;99.90
68764;DHT22;55754;52.038;5.566;2022-12-29T11:57:46;9.90;99.90
68764;DHT22;55754;52.038;5.566;2022-12-29T12:00:18;9.80;99.90
68764;DHT22;55754;52.038;5.566;2022-12-29T12:02:56;9.80;99.90
68764;DHT22;55754;52.038;5.566;2022-12-29T12:05:33;9.80;99.90
68764;DHT22;55754;52.038;5.566;2022-12-29T12:08:12;9.80;99.90
68764;DHT22;55754;52.038;5.566;2022-12-29T12:10:45;9.80;99.90
68764;DHT22;55754;52.038;5.566;2022-12-29T12:13:34;9.90;99.90
68764;DHT22;55754;52.038;5.566;2022-12-29T12:16:24;9.90;99.90
68764;DHT22;55754;52.038;5.566;2022-12-29T12:19:06;9.90;99.90
68764;DHT22;55754;52.038;5.566;2022-12-29T12:21:40;9.90;99.90
68764;DHT22;55754;52.038;5.566;2022-12-29T12:27:26;9.90;99.90
68764;DHT22;55754;52.038;5.566;2022-12-29T12:32:53;10.00;99.90
68764;DHT22;55754;52.038;5.566;2022-12-29T12:35:32;10.00;99.90
68764;DHT22;55754;52.038;5.566;2022-12-29T12:41:02;10.10;99.90
68764;DHT22;55754;52.038;5.566;2022-12-29T12:57:22;10.20;99.90
68764;DHT22;55754;52.038;5.566;2022-12-29T13:00:11;10.20;99.90
68764;DHT22;55754;52.038;5.566;2022-12-29T13:08:32;10.20;99.90
68764;DHT22;55754;52.038;5.566;2022-12-29T13:17:08;10.20;99.80
68764;DHT22;55754;52.038;5.566;2022-12-29T13:22:35;10.20;99.40
68764;DHT22;55754;52.038;5.566;2022-12-29T13:33:38;10.30;98.80
68764;DHT22;55754;52.038;5.566;2022-12-29T13:39:19;10.40;98.30
68764;DHT22;55754;52.038;5.566;2022-12-29T13:41:51;10.40;98.00
68764;DHT22;55754;52.038;5.566;2022-12-29T13:46:54;10.30;97.80
68764;DHT22;55754;52.038;5.566;2022-12-29T13:49:22;10.30;97.90
68764;DHT22;55754;52.038;5.566;2022-12-29T13:51:56;10.30;98.00
68764;DHT22;55754;52.038;5.566;2022-12-29T13:56:50;10.40;97.70
68764;DHT22;55754;52.038;5.566;2022-12-29T14:02:09;10.40;97.40
68764;DHT22;55754;52.038;5.566;2022-12-29T14:05:05;10.40;97.40
68764;DHT22;55754;52.038;5.566;2022-12-29T14:07:40;10.30;97.60
68764;DHT22;55754;52.038;5.566;2022-12-29T14:10:06;10.30;97.90
68764;DHT22;55754;52.038;5.566;2022-12-29T14:12:51;10.20;97.80
68764;DHT22;55754;52.038;5.566;2022-12-29T14:15:25;10.20;97.50
68764;DHT22;55754;52.038;5.566;2022-12-29T14:18:10;10.20;96.50
68764;DHT22;55754;52.038;5.566;2022-12-29T14:20:37;10.20;96.30
68764;DHT22;55754;52.038;5.566;2022-12-29T14:28:34;10.10;95.90
68764;DHT22;55754;52.038;5.566;2022-12-29T14:31:01;10.10;96.60
68764;DHT22;55754;52.038;5.566;2022-12-29T14:33:29;10.00;96.80
68764;DHT22;55754;52.038;5.566;2022-12-29T14:35:55;10.00;97.10
68764;DHT22;55754;52.038;5.566;2022-12-29T14:38:27;9.90;97.50
68764;DHT22;55754;52.038;5.566;2022-12-29T14:40:53;9.90;98.00
68764;DHT22;55754;52.038;5.566;2022-12-29T14:43:39;9.80;98.20
68764;DHT22;55754;52.038;5.566;2022-12-29T14:46:08;9.90;98.40
68764;DHT22;55754;52.038;5.566;2022-12-29T14:48:37;9.80;98.60
68764;DHT22;55754;52.038;5.566;2022-12-29T14:51:34;9.80;98.60
68764;DHT22;55754;52.038;5.566;2022-12-29T14:57:03;9.80;99.00
68764;DHT22;55754;52.038;5.566;2022-12-29T14:59:30;9.80;99.00
68764;DHT22;55754;52.038;5.566;2022-12-29T15:01:58;9.80;99.00
68764;DHT22;55754;52.038;5.566;2022-12-29T15:04:30;9.80;99.10
68764;DHT22;55754;52.038;5.566;2022-12-29T15:06:56;9.80;99.10
68764;DHT22;55754;52.038;5.566;2022-12-29T15:09:36;9.70;99.20
68764;DHT22;55754;52.038;5.566;2022-12-29T15:12:25;9.70;99.20
68764;DHT22;55754;52.038;5.566;2022-12-29T15:14:57;9.70;99.00
68764;DHT22;55754;52.038;5.566;2022-12-29T15:17:31;9.70;99.10
68764;DHT22;55754;52.038;5.566;2022-12-29T15:20:00;9.70;99.00
68764;DHT22;55754;52.038;5.566;2022-12-29T15:22:26;9.70;99.10
68764;DHT22;55754;52.038;5.566;2022-12-29T15:24:54;9.70;99.10
68764;DHT22;55754;52.038;5.566;2022-12-29T15:27:25;9.70;99.20
68764;DHT22;55754;52.038;5.566;2022-12-29T15:30:00;9.70;99.30
68764;DHT22;55754;52.038;5.566;2022-12-29T15:32:38;9.70;99.30
68764;DHT22;55754;52.038;5.566;2022-12-29T15:37:53;9.70;99.20
68764;DHT22;55754;52.038;5.566;2022-12-29T15:40:28;9.70;99.10
68764;DHT22;55754;52.038;5.566;2022-12-29T15:45:33;9.80;99.20
68764;DHT22;55754;52.038;5.566;2022-12-29T15:48:00;9.70;99.20
68764;DHT22;55754;52.038;5.566;2022-12-29T15:50:39;9.80;99.20
68764;DHT22;55754;52.038;5.566;2022-12-29T15:53:11;9.80;98.90
68764;DHT22;55754;52.038;5.566;2022-12-29T15:55:39;9.70;98.60
68764;DHT22;55754;52.038;5.566;2022-12-29T15:58:27;9.70;98.70
68764;DHT22;55754;52.038;5.566;2022-12-29T16:00:58;9.70;98.50
68764;DHT22;55754;52.038;5.566;2022-12-29T16:03:34;9.80;98.30
68764;DHT22;55754;52.038;5.566;2022-12-29T16:06:10;9.80;98.40
68764;DHT22;55754;52.038;5.566;2022-12-29T16:08:59;9.80;98.30
68764;DHT22;55754;52.038;5.566;2022-12-29T16:11:39;9.80;98.10
68764;DHT22;55754;52.038;5.566;2022-12-29T16:14:09;9.80;97.40
68764;DHT22;55754;52.038;5.566;2022-12-29T16:16:41;9.80;97.80
68764;DHT22;55754;52.038;5.566;2022-12-29T16:21:37;9.80;97.10
68764;DHT22;55754;52.038;5.566;2022-12-29T16:24:12;9.80;97.30
68764;DHT22;55754;52.038;5.566;2022-12-29T16:26:39;9.80;96.70
68764;DHT22;55754;52.038;5.566;2022-12-29T16:29:07;9.70;96.60
68764;DHT22;55754;52.038;5.566;2022-12-29T16:31:52;9.80;96.70
68764;DHT22;55754;52.038;5.566;2022-12-29T16:34:28;9.70;96.50
68764;DHT22;55754;52.038;5.566;2022-12-29T16:37:01;9.80;96.70
68764;DHT22;55754;52.038;5.566;2022-12-29T16:39:37;9.70;96.30
68764;DHT22;55754;52.038;5.566;2022-12-29T16:42:33;9.70;96.40
68764;DHT22;55754;52.038;5.566;2022-12-29T16:47:47;9.60;95.70
68764;DHT22;55754;52.038;5.566;2022-12-29T16:50:18;9.60;95.60
68764;DHT22;55754;52.038;5.566;2022-12-29T16:52:48;9.50;95.20
68764;DHT22;55754;52.038;5.566;2022-12-29T16:55:18;9.50;95.10
68764;DHT22;55754;52.038;5.566;2022-12-29T16:57:46;9.50;94.50
68764;DHT22;55754;52.038;5.566;2022-12-29T17:00:24;9.40;94.60
68764;DHT22;55754;52.038;5.566;2022-12-29T17:02:54;9.40;94.60
68764;DHT22;55754;52.038;5.566;2022-12-29T17:05:21;9.40;94.90
68764;DHT22;55754;52.038;5.566;2022-12-29T17:07:46;9.30;94.40
68764;DHT22;55754;52.038;5.566;2022-12-29T17:10:13;9.30;95.00
68764;DHT22;55754;52.038;5.566;2022-12-29T17:12:42;9.30;94.70
68764;DHT22;55754;52.038;5.566;2022-12-29T17:15:15;9.30;94.70
68764;DHT22;55754;52.038;5.566;2022-12-29T17:17:47;9.30;94.10
68764;DHT22;55754;52.038;5.566;2022-12-29T17:22:45;9.20;94.60
68764;DHT22;55754;52.038;5.566;2022-12-29T17:25:15;9.20;94.20
68764;DHT22;55754;52.038;5.566;2022-12-29T17:27:55;9.20;94.60
68764;DHT22;55754;52.038;5.566;2022-12-29T17:30:24;9.20;93.90
68764;DHT22;55754;52.038;5.566;2022-12-29T17:32:52;9.20;94.50
68764;DHT22;55754;52.038;5.566;2022-12-29T17:35:20;9.20;94.30
68764;DHT22;55754;52.038;5.566;2022-12-29T17:37:47;9.20;94.30
68764;DHT22;55754;52.038;5.566;2022-12-29T17:40:15;9.20;94.30
68764;DHT22;55754;52.038;5.566;2022-12-29T17:42:44;9.10;94.10
68764;DHT22;55754;52.038;5.566;2022-12-29T17:45:20;9.10;94.10
68764;DHT22;55754;52.038;5.566;2022-12-29T17:47:47;9.10;94.00
68764;DHT22;55754;52.038;5.566;2022-12-29T17:50:15;9.10;93.80
68764;DHT22;55754;52.038;5.566;2022-12-29T17:52:48;9.10;94.20
68764;DHT22;55754;52.038;5.566;2022-12-29T17:55:18;9.10;94.00
68764;DHT22;55754;52.038;5.566;2022-12-29T17:57:47;9.10;94.00
68764;DHT22;55754;52.038;5.566;2022-12-29T18:00:21;9.10;94.10
68764;DHT22;55754;52.038;5.566;2022-12-29T18:02:47;9.10;94.00
68764;DHT22;55754;52.038;5.566;2022-12-29T18:05:21;9.10;94.00
68764;DHT22;55754;52.038;5.566;2022-12-29T18:07:49;9.00;93.90
68764;DHT22;55754;52.038;5.566;2022-12-29T18:10:19;8.90;93.60
68764;DHT22;55754;52.038;5.566;2022-12-29T18:12:46;8.90;93.50
68764;DHT22;55754;52.038;5.566;2022-12-29T18:15:34;8.90;93.30
68764;DHT22;55754;52.038;5.566;2022-12-29T18:20:26;9.00;93.50
68764;DHT22;55754;52.038;5.566;2022-12-29T18:22:52;8.90;93.00